sensor_id;sensor_type;location;lat;lon;timestamp;temperature;humidity
29729;DHT22;20055;51.498;11.960;2023-07-22T00:01:17;15.70;99.90
29729;DHT22;20055;51.498;11.960;2023-07-22T00:03:43;15.60;99.90
29729;DHT22;20055;51.498;11.960;2023-07-22T00:06:10;15.60;99.90
29729;DHT22;20055;51.498;11.960;2023-07-22T00:08:37;15.60;99.90
29729;DHT22;20055;51.498;11.960;2023-07-22T00:11:05;15.40;99.90
29729;DHT22;20055;51.498;11.960;2023-07-22T00:13:32;15.50;99.90
29729;DHT22;20055;51.498;11.960;2023-07-22T00:15:58;15.40;99.90
29729;DHT22;20055;51.498;11.960;2023-07-22T00:18:26;15.40;99.90
29729;DHT22;20055;51.498;11.960;2023-07-22T00:20:57;15.40;99.90
29729;DHT22;20055;51.498;11.960;2023-07-22T00:23:24;15.40;99.90
29729;DHT22;20055;51.498;11.960;2023-07-22T00:25:50;15.30;99.90
29729;DHT22;20055;51.498;11.960;2023-07-22T00:28:17;15.30;99.90
29729;DHT22;20055;51.498;11.960;2023-07-22T00:30:45;15.30;99.90
29729;DHT22;20055;51.498;11.960;2023-07-22T00:33:11;15.20;99.90
29729;DHT22;20055;51.498;11.960;2023-07-22T00:35:38;15.20;99.90
29729;DHT22;20055;51.498;11.960;2023-07-22T00:38:04;15.20;99.90
29729;DHT22;20055;51.498;11.960;2023-07-22T00:40:31;15.10;99.90
29729;DHT22;20055;51.498;11.960;2023-07-22T00:43:01;15.10;99.90
29729;DHT22;20055;51.498;11.960;2023-07-22T00:45:28;15.10;99.90
29729;DHT22;20055;51.498;11.960;2023-07-22T00:47:54;15.10;99.90
29729;DHT22;20055;51.498;11.960;2023-07-22T00:50:21;15.10;99.90
29729;DHT22;20055;51.498;11.960;2023-07-22T00:52:48;15.00;99.90
29729;DHT22;20055;51.498;11.960;2023-07-22T00:55:15;15.00;99.90
29729;DHT22;20055;51.498;11.960;2023-07-22T00:57:41;15.00;99.90
29729;DHT22;20055;51.498;11.960;2023-07-22T01:00:07;15.00;99.90
29729;DHT22;20055;51.498;11.960;2023-07-22T01:02:41;15.00;99.90
29729;DHT22;20055;51.498;11.960;2023-07-22T01:05:08;15.10;99.90
29729;DHT22;20055;51.498;11.960;2023-07-22T01:07:36;15.00;99.90
29729;DHT22;20055;51.498;11.960;2023-07-22T01:10:05;15.00;99.90
29729;DHT22;20055;51.498;11.960;2023-07-22T01:12:31;15.10;99.90
29729;DHT22;20055;51.498;11.960;2023-07-22T01:14:58;15.00;99.90
29729;DHT22;20055;51.498;11.960;2023-07-22T01:17:25;15.00;99.90
29729;DHT22;20055;51.498;11.960;2023-07-22T01:19:51;14.90;99.90
29729;DHT22;20055;51.498;11.960;2023-07-22T01:22:18;14.90;99.90
29729;DHT22;20055;51.498;11.960;2023-07-22T01:24:45;14.90;99.90
29729;DHT22;20055;51.498;11.960;2023-07-22T01:27:12;14.90;99.90
29729;DHT22;20055;51.498;11.960;2023-07-22T01:29:40;14.90;99.90
29729;DHT22;20055;51.498;11.960;2023-07-22T01:32:06;14.90;99.90
29729;DHT22;20055;51.498;11.960;2023-07-22T01:34:33;14.90;99.90
29729;DHT22;20055;51.498;11.960;2023-07-22T01:36:59;14.90;99.90
29729;DHT22;20055;51.498;11.960;2023-07-22T01:39:26;14.90;99.90
29729;DHT22;20055;51.498;11.960;2023-07-22T01:41:54;14.90;99.90
29729;DHT22;20055;51.498;11.960;2023-07-22T01:44:20;15.00;99.90
29729;DHT22;20055;51.498;11.960;2023-07-22T01:46:47;14.90;99.90
29729;DHT22;20055;51.498;11.960;2023-07-22T01:49:13;14.80;99.90
29729;DHT22;20055;51.498;11.960;2023-07-22T01:51:40;14.80;99.90
29729;DHT22;20055;51.498;11.960;2023-07-22T01:54:06;14.80;99.90
29729;DHT22;20055;51.498;11.960;2023-07-22T01:56:35;14.70;99.90
29729;DHT22;20055;51.498;11.960;2023-07-22T01:59:02;14.70;99.90
29729;DHT22;20055;51.498;11.960;2023-07-22T02:01:28;14.60;99.90
29729;DHT22;20055;51.498;11.960;2023-07-22T02:03:55;14.70;99.90
29729;DHT22;20055;51.498;11.960;2023-07-22T02:06:22;14.70;99.90
29729;DHT22;20055;51.498;11.960;2023-07-22T02:08:49;14.70;99.90
29729;DHT22;20055;51.498;11.960;2023-07-22T02:11:17;14.80;99.90
29729;DHT22;20055;51.498;11.960;2023-07-22T02:13:43;14.80;99.90
29729;DHT22;20055;51.498;11.960;2023-07-22T02:16:10;14.90;99.90
29729;DHT22;20055;51.498;11.960;2023-07-22T02:18:37;14.90;99.90
29729;DHT22;20055;51.498;11.960;2023-07-22T02:21:04;14.80;99.90
29729;DHT22;20055;51.498;11.960;2023-07-22T02:23:30;14.90;99.90
29729;DHT22;20055;51.498;11.960;2023-07-22T02:25:56;15.00;99.90
29729;DHT22;20055;51.498;11.960;2023-07-22T02:28:22;15.10;99.90
29729;DHT22;20055;51.498;11.960;2023-07-22T02:30:51;15.20;99.90
29729;DHT22;20055;51.498;11.960;2023-07-22T02:33:19;15.30;99.90
29729;DHT22;20055;51.498;11.960;2023-07-22T02:35:47;15.30;99.90
29729;DHT22;20055;51.498;11.960;2023-07-22T02:38:14;15.20;99.90
29729;DHT22;20055;51.498;11.960;2023-07-22T02:40:40;15.20;99.90
29729;DHT22;20055;51.498;11.960;2023-07-22T02:43:06;15.30;99.90
29729;DHT22;20055;51.498;11.960;2023-07-22T02:45:33;15.20;99.90
29729;DHT22;20055;51.498;11.960;2023-07-22T02:48:00;15.20;99.90
29729;DHT22;20055;51.498;11.960;2023-07-22T02:50:26;15.10;99.90
29729;DHT22;20055;51.498;11.960;2023-07-22T02:52:53;15.10;99.90
29729;DHT22;20055;51.498;11.960;2023-07-22T02:55:19;15.10;99.90
29729;DHT22;20055;51.498;11.960;2023-07-22T02:57:47;15.00;99.90
29729;DHT22;20055;51.498;11.960;2023-07-22T03:00:15;14.90;99.90
29729;DHT22;20055;51.498;11.960;2023-07-22T03:02:55;14.90;99.90
29729;DHT22;20055;51.498;11.960;2023-07-22T03:05:30;14.80;99.90
29729;DHT22;20055;51.498;11.960;2023-07-22T03:07:57;14.80;99.90
29729;DHT22;20055;51.498;11.960;2023-07-22T03:10:24;14.70;99.90
29729;DHT22;20055;51.498;11.960;2023-07-22T03:12:55;14.70;99.90
29729;DHT22;20055;51.498;11.960;2023-07-22T03:15:22;14.60;99.90
29729;DHT22;20055;51.498;11.960;2023-07-22T03:17:49;14.70;99.90
29729;DHT22;20055;51.498;11.960;2023-07-22T03:20:15;14.60;99.90
29729;DHT22;20055;51.498;11.960;2023-07-22T03:22:46;14.50;99.90
29729;DHT22;20055;51.498;11.960;2023-07-22T03:25:13;14.50;99.90
29729;DHT22;20055;51.498;11.960;2023-07-22T03:27:40;14.50;99.90
29729;DHT22;20055;51.498;11.960;2023-07-22T03:30:07;14.50;99.90
29729;DHT22;20055;51.498;11.960;2023-07-22T03:32:34;14.50;99.90
29729;DHT22;20055;51.498;11.960;2023-07-22T03:35:01;14.50;99.90
29729;DHT22;20055;51.498;11.960;2023-07-22T03:37:30;14.50;99.90
29729;DHT22;20055;51.498;11.960;2023-07-22T03:39:56;14.50;99.90
29729;DHT22;20055;51.498;11.960;2023-07-22T03:42:22;14.60;99.90
29729;DHT22;20055;51.498;11.960;2023-07-22T03:44:49;14.50;99.90
29729;DHT22;20055;51.498;11.960;2023-07-22T03:47:15;14.60;99.90
29729;DHT22;20055;51.498;11.960;2023-07-22T03:49:41;14.60;99.90
29729;DHT22;20055;51.498;11.960;2023-07-22T03:52:08;14.60;99.90
29729;DHT22;20055;51.498;11.960;2023-07-22T03:54:34;14.50;99.90
29729;DHT22;20055;51.498;11.960;2023-07-22T03:57:01;14.50;99.90
29729;DHT22;20055;51.498;11.960;2023-07-22T03:59:27;14.60;99.90
29729;DHT22;20055;51.498;11.960;2023-07-22T04:01:54;14.70;99.90
29729;DHT22;20055;51.498;11.960;2023-07-22T04:04:20;14.80;99.90
29729;DHT22;20055;51.498;11.960;2023-07-22T04:06:47;14.70;99.90
29729;DHT22;20055;51.498;11.960;2023-07-22T04:09:13;14.70;99.90
29729;DHT22;20055;51.498;11.960;2023-07-22T04:11:39;14.80;99.90
29729;DHT22;20055;51.498;11.960;2023-07-22T04:14:05;14.80;99.90
29729;DHT22;20055;51.498;11.960;2023-07-22T04:16:31;14.90;99.90
29729;DHT22;20055;51.498;11.960;2023-07-22T04:18:58;14.90;99.90
29729;DHT22;20055;51.498;11.960;2023-07-22T04:21:24;15.00;99.90
29729;DHT22;20055;51.498;11.960;2023-07-22T04:23:50;14.90;99.90
29729;DHT22;20055;51.498;11.960;2023-07-22T04:26:16;14.90;99.90
29729;DHT22;20055;51.498;11.960;2023-07-22T04:28:43;14.90;99.90
29729;DHT22;20055;51.498;11.960;2023-07-22T04:31:09;15.00;99.90
29729;DHT22;20055;51.498;11.960;2023-07-22T04:33:35;15.00;99.90
29729;DHT22;20055;51.498;11.960;2023-07-22T04:36:02;15.00;99.90
29729;DHT22;20055;51.498;11.960;2023-07-22T04:38:28;15.40;99.90
29729;DHT22;20055;51.498;11.960;2023-07-22T04:40:54;16.80;99.90
29729;DHT22;20055;51.498;11.960;2023-07-22T04:43:21;18.20;99.90
29729;DHT22;20055;51.498;11.960;2023-07-22T04:45:47;19.20;99.90
29729;DHT22;20055;51.498;11.960;2023-07-22T04:48:19;20.20;99.90
29729;DHT22;20055;51.498;11.960;2023-07-22T04:50:46;21.10;99.90
29729;DHT22;20055;51.498;11.960;2023-07-22T04:53:13;22.00;99.90
29729;DHT22;20055;51.498;11.960;2023-07-22T04:55:40;22.70;99.90
29729;DHT22;20055;51.498;11.960;2023-07-22T04:58:06;23.40;99.90
29729;DHT22;20055;51.498;11.960;2023-07-22T05:00:32;24.30;99.90
29729;DHT22;20055;51.498;11.960;2023-07-22T05:02:59;25.10;99.90
29729;DHT22;20055;51.498;11.960;2023-07-22T05:05:26;25.40;99.90
29729;DHT22;20055;51.498;11.960;2023-07-22T05:07:52;26.10;98.30
29729;DHT22;20055;51.498;11.960;2023-07-22T05:10:19;26.00;96.30
29729;DHT22;20055;51.498;11.960;2023-07-22T05:12:45;25.10;97.10
29729;DHT22;20055;51.498;11.960;2023-07-22T05:15:13;25.50;96.80
29729;DHT22;20055;51.498;11.960;2023-07-22T05:17:39;25.60;95.80
29729;DHT22;20055;51.498;11.960;2023-07-22T05:20:06;25.40;95.90
29729;DHT22;20055;51.498;11.960;2023-07-22T05:22:36;24.20;97.60
29729;DHT22;20055;51.498;11.960;2023-07-22T05:25:04;23.70;97.90
29729;DHT22;20055;51.498;11.960;2023-07-22T05:27:31;23.70;98.60
29729;DHT22;20055;51.498;11.960;2023-07-22T05:29:57;23.20;98.90
29729;DHT22;20055;51.498;11.960;2023-07-22T05:32:23;22.70;99.60
29729;DHT22;20055;51.498;11.960;2023-07-22T05:34:50;21.60;99.90
29729;DHT22;20055;51.498;11.960;2023-07-22T05:37:16;21.20;99.90
29729;DHT22;20055;51.498;11.960;2023-07-22T05:39:42;20.90;99.90
29729;DHT22;20055;51.498;11.960;2023-07-22T05:42:08;20.70;99.90
29729;DHT22;20055;51.498;11.960;2023-07-22T05:44:34;20.80;99.90
29729;DHT22;20055;51.498;11.960;2023-07-22T05:47:01;20.50;99.90
29729;DHT22;20055;51.498;11.960;2023-07-22T05:49:27;20.30;99.90
29729;DHT22;20055;51.498;11.960;2023-07-22T05:51:54;19.90;99.90
29729;DHT22;20055;51.498;11.960;2023-07-22T05:54:21;19.80;99.90
29729;DHT22;20055;51.498;11.960;2023-07-22T05:56:47;19.70;99.90
29729;DHT22;20055;51.498;11.960;2023-07-22T05:59:13;19.60;99.90
29729;DHT22;20055;51.498;11.960;2023-07-22T06:01:40;19.40;99.90
29729;DHT22;20055;51.498;11.960;2023-07-22T06:04:06;19.30;99.90
29729;DHT22;20055;51.498;11.960;2023-07-22T06:06:33;19.30;99.90
29729;DHT22;20055;51.498;11.960;2023-07-22T06:08:59;19.30;99.90
29729;DHT22;20055;51.498;11.960;2023-07-22T06:11:25;19.30;99.90
29729;DHT22;20055;51.498;11.960;2023-07-22T06:13:51;19.30;99.90
29729;DHT22;20055;51.498;11.960;2023-07-22T06:16:18;19.20;99.90
29729;DHT22;20055;51.498;11.960;2023-07-22T06:18:44;19.00;99.90
29729;DHT22;20055;51.498;11.960;2023-07-22T06:21:10;19.10;99.90
29729;DHT22;20055;51.498;11.960;2023-07-22T06:23:37;19.10;99.90
29729;DHT22;20055;51.498;11.960;2023-07-22T06:26:03;19.20;99.90
29729;DHT22;20055;51.498;11.960;2023-07-22T06:28:29;19.30;99.90
29729;DHT22;20055;51.498;11.960;2023-07-22T06:30:55;19.40;99.90
29729;DHT22;20055;51.498;11.960;2023-07-22T06:33:23;19.40;99.90
29729;DHT22;20055;51.498;11.960;2023-07-22T06:35:49;19.10;99.90
29729;DHT22;20055;51.498;11.960;2023-07-22T06:38:15;19.00;99.90
29729;DHT22;20055;51.498;11.960;2023-07-22T06:40:42;18.90;99.90
29729;DHT22;20055;51.498;11.960;2023-07-22T06:43:08;19.00;99.90
29729;DHT22;20055;51.498;11.960;2023-07-22T06:45:34;19.30;99.90
29729;DHT22;20055;51.498;11.960;2023-07-22T06:48:00;19.60;99.90
29729;DHT22;20055;51.498;11.960;2023-07-22T06:50:27;19.70;99.90
29729;DHT22;20055;51.498;11.960;2023-07-22T06:52:53;19.90;99.90
29729;DHT22;20055;51.498;11.960;2023-07-22T06:55:19;20.00;99.90
29729;DHT22;20055;51.498;11.960;2023-07-22T06:57:48;19.70;99.90
29729;DHT22;20055;51.498;11.960;2023-07-22T07:00:15;19.60;99.90
29729;DHT22;20055;51.498;11.960;2023-07-22T07:02:41;19.80;99.90
29729;DHT22;20055;51.498;11.960;2023-07-22T07:05:07;20.20;99.90
29729;DHT22;20055;51.498;11.960;2023-07-22T07:07:33;20.30;99.90
29729;DHT22;20055;51.498;11.960;2023-07-22T07:10:00;20.30;99.90
29729;DHT22;20055;51.498;11.960;2023-07-22T07:12:26;20.20;99.90
29729;DHT22;20055;51.498;11.960;2023-07-22T07:14:53;20.20;99.90
29729;DHT22;20055;51.498;11.960;2023-07-22T07:17:20;20.20;99.90
29729;DHT22;20055;51.498;11.960;2023-07-22T07:19:46;20.40;99.90
29729;DHT22;20055;51.498;11.960;2023-07-22T07:22:12;20.60;99.90
29729;DHT22;20055;51.498;11.960;2023-07-22T07:24:38;20.70;99.90
29729;DHT22;20055;51.498;11.960;2023-07-22T07:27:05;20.70;99.90
29729;DHT22;20055;51.498;11.960;2023-07-22T07:29:31;20.70;99.90
29729;DHT22;20055;51.498;11.960;2023-07-22T07:31:57;20.80;99.90
29729;DHT22;20055;51.498;11.960;2023-07-22T07:34:24;20.70;99.90
29729;DHT22;20055;51.498;11.960;2023-07-22T07:36:50;20.70;99.90
29729;DHT22;20055;51.498;11.960;2023-07-22T07:39:16;20.90;99.90
29729;DHT22;20055;51.498;11.960;2023-07-22T07:41:43;21.00;99.90
29729;DHT22;20055;51.498;11.960;2023-07-22T07:44:09;21.10;99.90
29729;DHT22;20055;51.498;11.960;2023-07-22T07:46:35;21.30;99.90
29729;DHT22;20055;51.498;11.960;2023-07-22T07:49:02;20.70;99.90
29729;DHT22;20055;51.498;11.960;2023-07-22T07:51:30;20.50;99.90
29729;DHT22;20055;51.498;11.960;2023-07-22T07:53:59;20.60;99.90
29729;DHT22;20055;51.498;11.960;2023-07-22T07:56:26;20.40;99.90
29729;DHT22;20055;51.498;11.960;2023-07-22T07:58:53;20.70;99.90
29729;DHT22;20055;51.498;11.960;2023-07-22T08:01:20;21.10;99.90
29729;DHT22;20055;51.498;11.960;2023-07-22T08:03:47;21.60;99.90
29729;DHT22;20055;51.498;11.960;2023-07-22T08:06:13;21.40;99.90
29729;DHT22;20055;51.498;11.960;2023-07-22T08:08:40;21.00;99.90
29729;DHT22;20055;51.498;11.960;2023-07-22T08:11:10;21.40;99.90
29729;DHT22;20055;51.498;11.960;2023-07-22T08:13:37;21.20;99.90
29729;DHT22;20055;51.498;11.960;2023-07-22T08:16:05;21.50;99.80
29729;DHT22;20055;51.498;11.960;2023-07-22T08:18:32;21.50;99.40
29729;DHT22;20055;51.498;11.960;2023-07-22T08:21:00;21.70;99.20
29729;DHT22;20055;51.498;11.960;2023-07-22T08:23:26;21.70;98.80
29729;DHT22;20055;51.498;11.960;2023-07-22T08:25:53;21.70;99.50
29729;DHT22;20055;51.498;11.960;2023-07-22T08:28:19;21.50;99.50
29729;DHT22;20055;51.498;11.960;2023-07-22T08:30:45;21.70;99.40
29729;DHT22;20055;51.498;11.960;2023-07-22T08:33:14;21.60;99.40
29729;DHT22;20055;51.498;11.960;2023-07-22T08:35:40;21.20;99.70
29729;DHT22;20055;51.498;11.960;2023-07-22T08:38:07;20.80;99.90
29729;DHT22;20055;51.498;11.960;2023-07-22T08:40:39;20.80;99.90
29729;DHT22;20055;51.498;11.960;2023-07-22T08:43:08;20.60;99.90
29729;DHT22;20055;51.498;11.960;2023-07-22T08:45:36;20.50;99.90
29729;DHT22;20055;51.498;11.960;2023-07-22T08:48:06;20.40;99.90
29729;DHT22;20055;51.498;11.960;2023-07-22T08:50:53;20.30;99.90
29729;DHT22;20055;51.498;11.960;2023-07-22T08:53:21;20.60;99.90
29729;DHT22;20055;51.498;11.960;2023-07-22T08:55:47;20.50;99.90
29729;DHT22;20055;51.498;11.960;2023-07-22T08:58:14;20.40;99.90
29729;DHT22;20055;51.498;11.960;2023-07-22T09:00:40;20.60;99.90
29729;DHT22;20055;51.498;11.960;2023-07-22T09:03:07;20.40;99.90
29729;DHT22;20055;51.498;11.960;2023-07-22T09:05:35;20.30;99.90
29729;DHT22;20055;51.498;11.960;2023-07-22T09:08:03;20.60;99.90
29729;DHT22;20055;51.498;11.960;2023-07-22T09:10:31;20.80;99.90
29729;DHT22;20055;51.498;11.960;2023-07-22T09:12:58;20.60;99.90
29729;DHT22;20055;51.498;11.960;2023-07-22T09:15:25;20.60;99.90
29729;DHT22;20055;51.498;11.960;2023-07-22T09:17:52;20.80;99.90
29729;DHT22;20055;51.498;11.960;2023-07-22T09:20:20;20.90;99.90
29729;DHT22;20055;51.498;11.960;2023-07-22T09:22:48;20.60;99.90
29729;DHT22;20055;51.498;11.960;2023-07-22T09:25:23;20.40;99.90
29729;DHT22;20055;51.498;11.960;2023-07-22T09:27:55;20.90;99.90
29729;DHT22;20055;51.498;11.960;2023-07-22T09:32:50;21.80;99.00
29729;DHT22;20055;51.498;11.960;2023-07-22T09:35:17;21.90;98.70
29729;DHT22;20055;51.498;11.960;2023-07-22T09:37:44;21.70;98.30
29729;DHT22;20055;51.498;11.960;2023-07-22T09:40:15;21.80;99.90
29729;DHT22;20055;51.498;11.960;2023-07-22T09:42:46;21.60;98.30
29729;DHT22;20055;51.498;11.960;2023-07-22T09:45:13;21.00;98.00
29729;DHT22;20055;51.498;11.960;2023-07-22T09:47:46;20.80;98.70
29729;DHT22;20055;51.498;11.960;2023-07-22T09:50:15;21.10;98.60
29729;DHT22;20055;51.498;11.960;2023-07-22T09:52:51;21.40;98.00
29729;DHT22;20055;51.498;11.960;2023-07-22T09:55:20;21.50;97.10
29729;DHT22;20055;51.498;11.960;2023-07-22T09:57:50;21.30;97.60
29729;DHT22;20055;51.498;11.960;2023-07-22T10:00:17;21.50;97.30
29729;DHT22;20055;51.498;11.960;2023-07-22T10:02:48;21.50;95.80
29729;DHT22;20055;51.498;11.960;2023-07-22T10:05:18;21.60;97.10
29729;DHT22;20055;51.498;11.960;2023-07-22T10:07:50;22.00;96.40
29729;DHT22;20055;51.498;11.960;2023-07-22T10:10:22;22.20;95.50
29729;DHT22;20055;51.498;11.960;2023-07-22T10:12:49;21.50;96.50
29729;DHT22;20055;51.498;11.960;2023-07-22T10:15:16;21.70;96.80
29729;DHT22;20055;51.498;11.960;2023-07-22T10:17:46;22.30;96.00
29729;DHT22;20055;51.498;11.960;2023-07-22T10:20:13;22.50;96.20
29729;DHT22;20055;51.498;11.960;2023-07-22T10:22:43;22.60;95.80
29729;DHT22;20055;51.498;11.960;2023-07-22T10:25:18;22.70;94.70
29729;DHT22;20055;51.498;11.960;2023-07-22T10:27:45;23.20;94.00
29729;DHT22;20055;51.498;11.960;2023-07-22T10:30:14;23.30;94.00
29729;DHT22;20055;51.498;11.960;2023-07-22T10:32:44;23.50;93.20
29729;DHT22;20055;51.498;11.960;2023-07-22T10:35:11;23.80;92.60
29729;DHT22;20055;51.498;11.960;2023-07-22T10:37:39;23.80;92.30
29729;DHT22;20055;51.498;11.960;2023-07-22T10:43:14;24.20;91.70
29729;DHT22;20055;51.498;11.960;2023-07-22T10:45:43;24.20;90.30
29729;DHT22;20055;51.498;11.960;2023-07-22T10:48:14;23.70;91.40
29729;DHT22;20055;51.498;11.960;2023-07-22T10:50:43;24.00;90.70
29729;DHT22;20055;51.498;11.960;2023-07-22T10:53:11;23.80;90.40
29729;DHT22;20055;51.498;11.960;2023-07-22T11:01:33;23.50;91.00
29729;DHT22;20055;51.498;11.960;2023-07-22T11:06:29;23.90;90.20
29729;DHT22;20055;51.498;11.960;2023-07-22T11:08:56;24.00;90.00
29729;DHT22;20055;51.498;11.960;2023-07-22T11:11:38;24.20;89.50
29729;DHT22;20055;51.498;11.960;2023-07-22T11:14:17;24.10;90.00
29729;DHT22;20055;51.498;11.960;2023-07-22T11:16:46;24.00;90.20
29729;DHT22;20055;51.498;11.960;2023-07-22T11:19:14;23.90;90.40
29729;DHT22;20055;51.498;11.960;2023-07-22T11:21:46;23.90;89.10
29729;DHT22;20055;51.498;11.960;2023-07-22T11:24:13;23.80;88.90
29729;DHT22;20055;51.498;11.960;2023-07-22T11:26:40;23.50;88.20
29729;DHT22;20055;51.498;11.960;2023-07-22T11:29:08;23.80;87.10
29729;DHT22;20055;51.498;11.960;2023-07-22T11:31:37;23.40;88.30
29729;DHT22;20055;51.498;11.960;2023-07-22T11:34:04;23.70;86.80
29729;DHT22;20055;51.498;11.960;2023-07-22T11:36:31;23.60;87.50
29729;DHT22;20055;51.498;11.960;2023-07-22T11:39:07;23.60;87.70
29729;DHT22;20055;51.498;11.960;2023-07-22T11:41:34;23.50;87.70
29729;DHT22;20055;51.498;11.960;2023-07-22T11:44:02;23.10;87.70
29729;DHT22;20055;51.498;11.960;2023-07-22T11:46:28;22.80;89.00
29729;DHT22;20055;51.498;11.960;2023-07-22T11:48:55;22.80;89.60
29729;DHT22;20055;51.498;11.960;2023-07-22T11:51:24;23.00;89.70
29729;DHT22;20055;51.498;11.960;2023-07-22T11:53:52;23.20;89.50
29729;DHT22;20055;51.498;11.960;2023-07-22T11:56:25;23.00;89.50
29729;DHT22;20055;51.498;11.960;2023-07-22T11:58:53;22.80;90.80
29729;DHT22;20055;51.498;11.960;2023-07-22T12:01:20;23.00;91.80
29729;DHT22;20055;51.498;11.960;2023-07-22T12:03:46;22.70;92.60
29729;DHT22;20055;51.498;11.960;2023-07-22T12:06:14;22.70;91.50
29729;DHT22;20055;51.498;11.960;2023-07-22T12:08:47;23.00;92.40
29729;DHT22;20055;51.498;11.960;2023-07-22T12:11:24;23.10;90.50
29729;DHT22;20055;51.498;11.960;2023-07-22T12:16:36;23.10;92.20
29729;DHT22;20055;51.498;11.960;2023-07-22T12:19:03;23.30;91.50
29729;DHT22;20055;51.498;11.960;2023-07-22T12:21:29;22.90;91.80
29729;DHT22;20055;51.498;11.960;2023-07-22T12:23:56;22.90;93.00
29729;DHT22;20055;51.498;11.960;2023-07-22T12:26:22;23.20;92.40
29729;DHT22;20055;51.498;11.960;2023-07-22T12:28:48;22.80;91.70
29729;DHT22;20055;51.498;11.960;2023-07-22T12:31:15;22.80;92.10
29729;DHT22;20055;51.498;11.960;2023-07-22T12:33:42;22.50;92.30
29729;DHT22;20055;51.498;11.960;2023-07-22T12:36:09;22.60;92.40
29729;DHT22;20055;51.498;11.960;2023-07-22T12:38:35;22.90;91.70
29729;DHT22;20055;51.498;11.960;2023-07-22T12:41:02;23.50;92.00
29729;DHT22;20055;51.498;11.960;2023-07-22T12:43:28;23.80;91.10
29729;DHT22;20055;51.498;11.960;2023-07-22T12:45:55;23.50;90.80
29729;DHT22;20055;51.498;11.960;2023-07-22T12:48:21;23.60;90.70
29729;DHT22;20055;51.498;11.960;2023-07-22T12:50:47;24.00;89.90
29729;DHT22;20055;51.498;11.960;2023-07-22T12:53:14;24.10;87.80
29729;DHT22;20055;51.498;11.960;2023-07-22T12:55:40;24.40;88.90
29729;DHT22;20055;51.498;11.960;2023-07-22T12:58:07;24.20;88.30
29729;DHT22;20055;51.498;11.960;2023-07-22T13:00:34;24.20;88.50
29729;DHT22;20055;51.498;11.960;2023-07-22T13:03:00;24.20;88.20
29729;DHT22;20055;51.498;11.960;2023-07-22T13:05:26;23.80;88.30
29729;DHT22;20055;51.498;11.960;2023-07-22T13:07:53;23.70;87.30
29729;DHT22;20055;51.498;11.960;2023-07-22T13:10:22;23.80;86.60
29729;DHT22;20055;51.498;11.960;2023-07-22T13:12:55;24.10;87.80
29729;DHT22;20055;51.498;11.960;2023-07-22T13:15:21;24.30;83.60
29729;DHT22;20055;51.498;11.960;2023-07-22T13:17:54;24.50;85.40
29729;DHT22;20055;51.498;11.960;2023-07-22T13:20:23;24.40;82.40
29729;DHT22;20055;51.498;11.960;2023-07-22T13:22:49;24.50;84.20
29729;DHT22;20055;51.498;11.960;2023-07-22T13:25:15;24.70;82.30
29729;DHT22;20055;51.498;11.960;2023-07-22T13:27:41;24.80;80.20
29729;DHT22;20055;51.498;11.960;2023-07-22T13:30:08;24.80;81.40
29729;DHT22;20055;51.498;11.960;2023-07-22T13:32:34;24.70;82.30
29729;DHT22;20055;51.498;11.960;2023-07-22T13:35:01;24.80;82.80
29729;DHT22;20055;51.498;11.960;2023-07-22T13:37:27;24.90;80.20
29729;DHT22;20055;51.498;11.960;2023-07-22T13:39:53;25.00;77.90
29729;DHT22;20055;51.498;11.960;2023-07-22T13:42:19;25.20;76.80
29729;DHT22;20055;51.498;11.960;2023-07-22T13:44:46;25.10;77.70
29729;DHT22;20055;51.498;11.960;2023-07-22T13:47:12;25.20;75.80
29729;DHT22;20055;51.498;11.960;2023-07-22T13:49:38;25.60;75.00
29729;DHT22;20055;51.498;11.960;2023-07-22T13:52:04;25.70;75.00
29729;DHT22;20055;51.498;11.960;2023-07-22T13:54:31;25.40;77.80
29729;DHT22;20055;51.498;11.960;2023-07-22T13:56:57;25.60;77.00
29729;DHT22;20055;51.498;11.960;2023-07-22T13:59:23;25.80;75.10
29729;DHT22;20055;51.498;11.960;2023-07-22T14:01:49;26.00;75.40
29729;DHT22;20055;51.498;11.960;2023-07-22T14:04:16;26.00;72.60
29729;DHT22;20055;51.498;11.960;2023-07-22T14:06:42;25.90;72.80
29729;DHT22;20055;51.498;11.960;2023-07-22T14:09:08;25.90;73.10
29729;DHT22;20055;51.498;11.960;2023-07-22T14:11:34;25.30;79.50
29729;DHT22;20055;51.498;11.960;2023-07-22T14:14:00;25.50;79.10
29729;DHT22;20055;51.498;11.960;2023-07-22T14:16:27;25.40;80.20
29729;DHT22;20055;51.498;11.960;2023-07-22T14:18:54;25.40;76.40
29729;DHT22;20055;51.498;11.960;2023-07-22T14:21:21;26.00;74.00
29729;DHT22;20055;51.498;11.960;2023-07-22T14:23:47;26.10;72.00
29729;DHT22;20055;51.498;11.960;2023-07-22T14:26:13;26.30;74.40
29729;DHT22;20055;51.498;11.960;2023-07-22T14:28:40;26.00;75.00
29729;DHT22;20055;51.498;11.960;2023-07-22T14:31:06;26.00;72.10
29729;DHT22;20055;51.498;11.960;2023-07-22T14:33:32;26.30;67.70
29729;DHT22;20055;51.498;11.960;2023-07-22T14:35:59;26.10;73.20
29729;DHT22;20055;51.498;11.960;2023-07-22T14:38:25;25.80;72.60
29729;DHT22;20055;51.498;11.960;2023-07-22T14:40:51;25.60;70.70
29729;DHT22;20055;51.498;11.960;2023-07-22T14:43:18;25.20;72.00
29729;DHT22;20055;51.498;11.960;2023-07-22T14:45:44;25.00;69.70
29729;DHT22;20055;51.498;11.960;2023-07-22T14:48:10;24.70;73.20
29729;DHT22;20055;51.498;11.960;2023-07-22T14:50:36;24.50;73.50
29729;DHT22;20055;51.498;11.960;2023-07-22T14:53:02;24.70;70.90
29729;DHT22;20055;51.498;11.960;2023-07-22T14:55:29;24.50;73.70
29729;DHT22;20055;51.498;11.960;2023-07-22T14:57:55;24.30;75.60
29729;DHT22;20055;51.498;11.960;2023-07-22T15:00:22;23.90;80.20
29729;DHT22;20055;51.498;11.960;2023-07-22T15:02:49;24.10;79.30
29729;DHT22;20055;51.498;11.960;2023-07-22T15:05:15;24.40;73.80
29729;DHT22;20055;51.498;11.960;2023-07-22T15:07:41;24.60;76.40
29729;DHT22;20055;51.498;11.960;2023-07-22T15:10:08;24.60;72.60
29729;DHT22;20055;51.498;11.960;2023-07-22T15:12:34;24.70;78.50
29729;DHT22;20055;51.498;11.960;2023-07-22T15:15:00;24.90;72.90
29729;DHT22;20055;51.498;11.960;2023-07-22T15:17:27;25.00;79.50
29729;DHT22;20055;51.498;11.960;2023-07-22T15:19:53;24.30;79.00
29729;DHT22;20055;51.498;11.960;2023-07-22T15:22:19;24.10;82.20
29729;DHT22;20055;51.498;11.960;2023-07-22T15:24:45;24.10;75.90
29729;DHT22;20055;51.498;11.960;2023-07-22T15:27:12;24.20;78.10
29729;DHT22;20055;51.498;11.960;2023-07-22T15:29:38;24.40;80.00
29729;DHT22;20055;51.498;11.960;2023-07-22T15:32:05;24.30;76.50